Time;durP1;ratioP1;P1;durP2;ratioP2;P2;SDS_P1;SDS_P2;PMS_P1;PMS_P2;Temp;Humidity;BMP_temperature;BMP_pressure;BME280_temperature;BME280_humidity;BME280_pressure;Samples;Min_cycle;Max_cycle;Signal;HPM_P1;HPM_P2
2021/12/19 00:02:34;;;;;;;8.35;3.92;;;9.80;98.20;;;;;;5032196;28;20045;-65
2021/12/19 00:04:32;;;;;;;8.68;3.25;;;9.80;98.20;;;;;;5020289;28;20075;-64
2021/12/19 00:09:43;;;;;;;12.75;3.63;;;9.80;98.10;;;;;;5018407;28;20030;-65
2021/12/19 00:12:09;;;;;;;9.75;3.17;;;9.80;98.20;;;;;;5032192;28;20392;-64
2021/12/19 00:14:35;;;;;;;7.13;3.22;;;9.80;98.20;;;;;;5016689;28;20030;-64
2021/12/19 00:17:00;;;;;;;8.68;2.67;;;9.70;98.10;;;;;;5029831;28;20029;-63
2021/12/19 00:19:26;;;;;;;7.82;2.90;;;9.70;98.20;;;;;;5029874;28;20041;-64
2021/12/19 00:21:52;;;;;;;11.95;3.38;;;9.70;98.30;;;;;;5032778;28;20401;-64
2021/12/19 00:24:18;;;;;;;9.00;3.50;;;9.80;98.20;;;;;;5031763;28;20476;-64
2021/12/19 00:26:44;;;;;;;8.13;3.03;;;9.80;98.20;;;;;;5028405;28;20025;-64
2021/12/19 00:29:09;;;;;;;9.40;3.28;;;9.70;98.30;;;;;;5032628;28;20526;-65
2021/12/19 00:31:35;;;;;;;10.43;3.40;;;9.80;98.30;;;;;;5030831;28;20021;-64
2021/12/19 00:34:01;;;;;;;9.77;3.80;;;9.80;98.30;;;;;;5033436;28;20103;-63
2021/12/19 00:36:27;;;;;;;11.38;3.70;;;9.80;98.30;;;;;;5031379;28;20025;-64
2021/12/19 00:38:53;;;;;;;10.77;3.83;;;9.70;98.20;;;;;;5032361;28;20468;-64
2021/12/19 00:41:19;;;;;;;13.82;3.40;;;9.70;98.30;;;;;;5026077;28;20045;-65
2021/12/19 00:43:47;;;;;;;6.85;3.30;;;9.80;98.30;;;;;;5023804;28;20079;-64
2021/12/19 00:46:15;;;;;;;8.23;3.17;;;9.80;98.20;;;;;;5028738;28;20040;-64
2021/12/19 00:48:47;;;;;;;8.35;3.55;;;9.80;98.10;;;;;;5027473;28;22340;-65
2021/12/19 00:51:16;;;;;;;8.68;3.20;;;9.70;98.00;;;;;;5024238;28;20030;-64
2021/12/19 00:53:44;;;;;;;11.93;3.35;;;9.80;98.10;;;;;;5032876;28;20025;-64
2021/12/19 00:56:10;;;;;;;8.98;3.40;;;9.80;98.10;;;;;;5031080;28;20029;-64
2021/12/19 00:58:36;;;;;;;11.77;4.97;;;9.80;98.00;;;;;;5031084;28;20099;-65
2021/12/19 01:01:06;;;;;;;13.02;5.35;;;9.80;98.00;;;;;;5028563;28;20037;-64
2021/12/19 01:03:32;;;;;;;9.48;4.50;;;9.80;98.10;;;;;;5017645;28;20048;-64
2021/12/19 01:05:58;;;;;;;8.80;4.63;;;9.80;98.00;;;;;;5027996;28;20036;-64
2021/12/19 01:08:24;;;;;;;7.10;3.67;;;9.80;98.00;;;;;;5031642;28;20431;-64
2021/12/19 01:10:50;;;;;;;10.25;4.40;;;9.80;98.00;;;;;;5030971;28;20026;-64
2021/12/19 01:13:18;;;;;;;9.15;3.80;;;9.80;97.90;;;;;;5024814;28;20033;-64
2021/12/19 01:15:44;;;;;;;9.60;4.43;;;9.80;98.00;;;;;;5029664;28;20028;-65
2021/12/19 01:18:10;;;;;;;8.63;4.32;;;9.70;97.90;;;;;;5031240;28;20520;-64
2021/12/19 01:20:39;;;;;;;7.53;3.92;;;9.80;98.00;;;;;;5031679;28;20071;-65
2021/12/19 01:23:06;;;;;;;8.27;4.10;;;9.80;97.90;;;;;;5029384;28;20029;-66
2021/12/19 01:25:32;;;;;;;6.10;3.90;;;9.70;97.70;;;;;;5028935;28;20124;-65
2021/12/19 01:27:58;;;;;;;8.30;4.07;;;9.70;97.90;;;;;;5030448;28;20043;-65
2021/12/19 01:30:24;;;;;;;8.45;4.65;;;9.80;97.90;;;;;;5022366;28;20392;-66
2021/12/19 01:32:50;;;;;;;10.32;4.65;;;9.70;97.80;;;;;;5027422;28;20028;-65
2021/12/19 01:35:18;;;;;;;9.23;4.88;;;9.70;97.80;;;;;;5029316;28;20604;-64
2021/12/19 01:37:44;;;;;;;7.88;5.25;;;9.70;97.80;;;;;;5029087;28;20465;-64
2021/12/19 01:40:12;;;;;;;8.38;5.05;;;9.80;97.80;;;;;;5026977;28;20032;-64
2021/12/19 01:42:41;;;;;;;11.43;5.68;;;9.70;97.70;;;;;;5028816;28;20427;-65
2021/12/19 01:45:10;;;;;;;10.10;5.85;;;9.70;97.80;;;;;;5029088;28;20116;-65
2021/12/19 01:47:36;;;;;;;9.95;5.57;;;9.70;97.80;;;;;;5027542;28;20033;-65
2021/12/19 01:50:03;;;;;;;10.18;5.97;;;9.70;97.80;;;;;;5029457;28;20032;-64
2021/12/19 01:52:30;;;;;;;10.30;6.22;;;9.70;98.00;;;;;;5028970;28;20026;-64
2021/12/19 01:54:57;;;;;;;10.25;5.80;;;9.70;97.80;;;;;;5029452;28;20116;-63
2021/12/19 01:57:25;;;;;;;9.90;5.53;;;9.70;97.80;;;;;;5029461;28;20301;-64
2021/12/19 01:59:52;;;;;;;11.90;6.18;;;9.70;97.80;;;;;;5029298;28;20279;-63
2021/12/19 02:02:17;;;;;;;9.65;5.32;;;9.70;97.80;;;;;;5028782;28;20029;-63
2021/12/19 02:04:43;;;;;;;9.18;6.47;;;9.70;97.80;;;;;;5029616;28;20036;-63
2021/12/19 02:07:11;;;;;;;8.55;5.95;;;9.70;97.70;;;;;;5030883;28;20112;-63
2021/12/19 02:09:38;;;;;;;8.40;5.28;;;9.70;97.70;;;;;;5022052;28;20125;-64
2021/12/19 02:12:04;;;;;;;8.57;4.25;;;9.70;97.80;;;;;;5025019;28;20033;-64
2021/12/19 02:14:30;;;;;;;6.40;4.40;;;9.70;97.80;;;;;;5021650;28;20373;-63
2021/12/19 02:16:56;;;;;;;9.70;3.95;;;9.60;97.70;;;;;;5025725;28;20037;-63
2021/12/19 02:19:24;;;;;;;8.10;4.05;;;9.70;97.90;;;;;;5022564;28;20025;-64
2021/12/19 02:21:49;;;;;;;9.88;3.53;;;9.70;97.80;;;;;;5025107;28;20405;-64
2021/12/19 02:24:15;;;;;;;6.78;3.45;;;9.70;97.80;;;;;;5030259;28;20017;-64
2021/12/19 02:26:43;;;;;;;6.50;3.10;;;9.70;97.70;;;;;;5030162;28;20037;-64
2021/12/19 02:29:09;;;;;;;6.50;3.03;;;9.70;97.70;;;;;;5029446;28;20033;-64
2021/12/19 02:31:35;;;;;;;8.38;3.38;;;9.70;97.70;;;;;;5028329;28;20036;-64
2021/12/19 02:34:14;;;;;;;5.65;2.90;;;9.70;97.80;;;;;;5029453;28;20037;-64
2021/12/19 02:50:13;;;;;;;6.78;2.58;;;9.50;97.80;;;;;;5018895;28;20283;-64
2021/12/19 02:52:38;;;;;;;6.45;2.83;;;9.50;97.90;;;;;;5026194;28;20038;-64
2021/12/19 02:55:05;;;;;;;5.55;3.42;;;9.50;97.90;;;;;;5029138;28;20025;-64
2021/12/19 02:57:31;;;;;;;4.35;2.28;;;9.50;97.90;;;;;;5028867;28;20140;-64
2021/12/19 02:59:57;;;;;;;7.07;3.00;;;9.60;98.00;;;;;;5029610;28;20037;-63
2021/12/19 03:02:22;;;;;;;8.35;2.65;;;9.50;97.90;;;;;;5030517;28;20022;-63
2021/12/19 03:04:57;;;;;;;5.22;2.75;;;9.50;97.90;;;;;;5026829;28;20025;-63
2021/12/19 03:07:24;;;;;;;9.63;3.35;;;9.60;98.00;;;;;;5034761;28;20029;-64
2021/12/19 03:17:57;;;;;;;3.67;2.20;;;9.60;97.90;;;;;;5032308;28;20071;-64
2021/12/19 03:18:00;;;;;;;5.00;2.25;;;9.60;97.90;;;;;;5033171;28;20038;-64
2021/12/19 03:20:28;;;;;;;7.00;2.33;;;9.60;97.90;;;;;;5027626;28;20041;-64
2021/12/19 03:22:54;;;;;;;8.45;2.10;;;9.60;97.90;;;;;;5031629;28;20040;-64
2021/12/19 03:25:19;;;;;;;5.50;2.40;;;9.70;97.90;;;;;;5033172;28;20029;-64
2021/12/19 03:27:45;;;;;;;7.47;2.42;;;9.60;97.90;;;;;;5028372;28;20447;-64
2021/12/19 03:30:11;;;;;;;5.82;2.50;;;9.60;97.90;;;;;;5032398;28;20476;-64
2021/12/19 03:32:37;;;;;;;6.22;2.22;;;9.70;97.90;;;;;;5032952;28;20103;-64
2021/12/19 03:35:03;;;;;;;6.00;2.47;;;9.70;97.90;;;;;;5033313;28;20037;-64
2021/12/19 03:37:28;;;;;;;7.13;2.65;;;9.70;97.90;;;;;;5030893;28;20067;-64
2021/12/19 03:40:07;;;;;;;3.55;2.50;;;9.70;97.90;;;;;;5033449;28;20065;-64
2021/12/19 03:42:35;;;;;;;4.38;1.95;;;9.70;97.90;;;;;;5032634;28;20049;-64
2021/12/19 03:45:00;;;;;;;5.00;2.20;;;9.60;97.90;;;;;;5033423;28;20037;-64
2021/12/19 03:47:26;;;;;;;3.38;2.15;;;9.70;97.90;;;;;;5048744;28;20033;-64
2021/12/19 03:49:51;;;;;;;7.03;2.30;;;9.60;97.80;;;;;;5032476;28;20014;-64
2021/12/19 03:52:17;;;;;;;4.43;2.38;;;9.70;97.90;;;;;;5028248;28;20017;-64
2021/12/19 03:54:43;;;;;;;5.63;2.22;;;9.70;97.90;;;;;;5028388;28;20405;-64
2021/12/19 03:57:08;;;;;;;4.75;2.25;;;9.60;97.90;;;;;;5032348;28;20496;-64
2021/12/19 03:59:34;;;;;;;5.38;2.28;;;9.70;97.80;;;;;;5032267;28;20408;-64
2021/12/19 04:02:00;;;;;;;5.40;2.35;;;9.70;97.80;;;;;;5033647;28;20495;-65
2021/12/19 04:04:25;;;;;;;5.55;2.60;;;9.70;97.80;;;;;;5026101;28;20374;-64
2021/12/19 04:06:51;;;;;;;4.80;2.42;;;9.70;97.70;;;;;;5022364;28;20388;-64
2021/12/19 04:09:16;;;;;;;4.43;2.60;;;9.70;97.60;;;;;;5028304;28;20385;-64
2021/12/19 04:11:42;;;;;;;5.05;2.30;;;9.60;97.60;;;;;;5031500;28;20026;-64
2021/12/19 04:14:07;;;;;;;4.65;2.10;;;9.60;97.70;;;;;;5032081;28;20068;-64
2021/12/19 04:16:33;;;;;;;5.28;2.85;;;9.60;97.80;;;;;;5030258;28;20896;-63
2021/12/19 04:18:58;;;;;;;5.97;2.67;;;9.70;97.60;;;;;;5032296;28;20112;-63
2021/12/19 04:21:24;;;;;;;4.88;2.10;;;9.60;97.80;;;;;;5032029;28;20059;-63
2021/12/19 04:23:49;;;;;;;4.03;2.70;;;9.60;97.70;;;;;;5030398;28;20025;-64
2021/12/19 04:26:15;;;;;;;9.98;3.28;;;9.60;97.60;;;;;;5030914;28;20022;-63
2021/12/19 04:28:41;;;;;;;6.32;2.63;;;9.50;97.70;;;;;;5032864;28;20113;-63
2021/12/19 04:31:06;;;;;;;5.22;2.65;;;9.50;97.70;;;;;;5026158;28;20528;-63
2021/12/19 04:33:34;;;;;;;4.63;2.40;;;9.50;97.70;;;;;;5033144;28;20026;-64
2021/12/19 04:36:02;;;;;;;5.18;3.25;;;9.50;97.80;;;;;;5022270;28;20396;-63
2021/12/19 04:44:32;;;;;;;5.97;2.92;;;9.50;97.80;;;;;;5031894;28;20037;-63
2021/12/19 04:52:56;;;;;;;6.35;3.15;;;9.40;97.80;;;;;;5029137;28;20029;-64
2021/12/19 04:57:58;;;;;;;5.50;3.28;;;9.50;97.80;;;;;;5029185;28;20044;-65
2021/12/19 05:00:35;;;;;;;6.57;2.95;;;9.50;97.80;;;;;;5021763;28;20076;-64
2021/12/19 05:03:19;;;;;;;8.10;3.13;;;9.50;97.70;;;;;;5026801;28;20034;-64
2021/12/19 05:06:12;;;;;;;6.18;3.28;;;9.40;97.60;;;;;;5030631;28;20025;-64
2021/12/19 05:16:33;;;;;;;4.95;3.22;;;9.30;97.70;;;;;;5030849;28;20025;-64
2021/12/19 05:19:05;;;;;;;8.55;3.10;;;9.30;97.80;;;;;;5031045;28;20029;-64
2021/12/19 05:21:34;;;;;;;9.90;3.40;;;9.20;97.80;;;;;;5032011;28;20041;-64
2021/12/19 05:26:25;;;;;;;8.18;2.85;;;9.20;97.80;;;;;;5029451;28;20435;-64
2021/12/19 05:28:52;;;;;;;5.82;3.00;;;9.30;97.90;;;;;;5029378;28;20022;-64
2021/12/19 05:31:19;;;;;;;6.25;3.20;;;9.30;97.90;;;;;;5029520;28;20071;-63
2021/12/19 05:33:46;;;;;;;6.32;3.22;;;9.30;97.90;;;;;;5032228;28;20025;-64
2021/12/19 05:47:00;;;;;;;7.65;3.17;;;9.20;97.90;;;;;;5027232;28;20262;-64
2021/12/19 05:49:27;;;;;;;7.88;3.42;;;9.30;98.00;;;;;;5029873;28;20592;-63
2021/12/19 05:51:52;;;;;;;9.23;3.17;;;9.30;98.00;;;;;;5029806;28;20033;-64
2021/12/19 05:54:18;;;;;;;7.47;2.90;;;9.30;98.10;;;;;;5030991;28;20037;-64
2021/12/19 05:56:43;;;;;;;6.28;2.80;;;9.30;98.10;;;;;;5025939;28;20029;-64
2021/12/19 05:59:10;;;;;;;6.97;3.17;;;9.30;98.10;;;;;;5018428;28;20409;-64
2021/12/19 06:01:37;;;;;;;7.47;3.00;;;9.30;98.00;;;;;;5021943;28;20065;-64
2021/12/19 06:04:02;;;;;;;6.45;3.45;;;9.30;98.00;;;;;;5025764;28;20120;-64
2021/12/19 06:06:28;;;;;;;5.28;2.80;;;9.20;98.00;;;;;;5020696;28;20116;-64
2021/12/19 06:08:54;;;;;;;8.43;3.22;;;9.20;98.00;;;;;;5029911;28;20025;-64
2021/12/19 06:11:19;;;;;;;8.90;2.70;;;9.20;98.00;;;;;;5029159;28;20025;-64
2021/12/19 06:13:45;;;;;;;6.18;3.28;;;9.30;98.10;;;;;;5031370;28;20489;-64
2021/12/19 06:16:11;;;;;;;7.43;3.47;;;9.30;98.00;;;;;;5028206;28;20480;-64
2021/12/19 06:18:36;;;;;;;6.78;2.80;;;9.30;98.00;;;;;;5029594;28;20164;-64
2021/12/19 06:21:03;;;;;;;7.88;4.00;;;9.20;98.00;;;;;;5021791;28;20116;-64
2021/12/19 06:23:28;;;;;;;5.15;2.60;;;9.30;97.90;;;;;;5023461;28;20389;-64
2021/12/19 06:25:54;;;;;;;6.70;2.78;;;9.30;97.90;;;;;;5028778;28;20091;-64
2021/12/19 06:28:21;;;;;;;6.68;2.85;;;9.30;97.90;;;;;;5030448;28;20044;-64
2021/12/19 06:30:47;;;;;;;9.00;2.70;;;9.20;97.90;;;;;;5027883;28;20416;-64
2021/12/19 06:33:13;;;;;;;6.00;2.58;;;9.30;97.90;;;;;;5026583;28;20025;-64
2021/12/19 06:35:39;;;;;;;5.65;2.30;;;9.30;97.90;;;;;;5027765;28;20029;-64
2021/12/19 06:38:06;;;;;;;7.00;2.92;;;9.30;97.80;;;;;;5026211;28;20076;-65
2021/12/19 06:40:32;;;;;;;6.65;2.42;;;9.30;97.70;;;;;;5023324;28;20041;-65
2021/12/19 06:42:58;;;;;;;7.32;3.03;;;9.30;97.80;;;;;;5034511;28;20037;-65
2021/12/19 06:45:23;;;;;;;10.93;2.60;;;9.30;97.80;;;;;;5033908;28;20505;-65
2021/12/19 06:47:49;;;;;;;7.53;3.17;;;9.20;97.90;;;;;;5032221;28;20029;-63
2021/12/19 06:50:16;;;;;;;9.40;2.90;;;9.20;97.90;;;;;;5033173;28;20026;-64
2021/12/19 06:52:43;;;;;;;5.53;2.60;;;9.20;97.90;;;;;;5034755;28;20554;-64
2021/12/19 06:55:10;;;;;;;6.90;2.90;;;9.30;98.00;;;;;;5031746;28;20030;-65
2021/12/19 06:57:36;;;;;;;9.07;2.45;;;9.30;98.00;;;;;;5027645;28;20439;-64
2021/12/19 07:00:24;;;;;;;5.68;2.20;;;9.20;97.90;;;;;;5027587;28;20081;-65
2021/12/19 07:02:52;;;;;;;4.47;1.73;;;9.10;97.90;;;;;;5023259;28;20437;-65
2021/12/19 07:05:17;;;;;;;4.78;2.20;;;9.10;97.70;;;;;;5030595;28;20377;-65
2021/12/19 07:07:43;;;;;;;4.50;1.98;;;9.10;97.80;;;;;;5031528;28;20026;-65
2021/12/19 07:10:09;;;;;;;4.95;1.83;;;9.20;97.70;;;;;;5032889;28;20023;-65
2021/12/19 07:12:34;;;;;;;4.65;2.00;;;9.20;97.70;;;;;;5031869;28;20436;-64
2021/12/19 07:15:01;;;;;;;5.95;1.98;;;9.20;97.60;;;;;;5032744;28;20129;-64
2021/12/19 07:17:26;;;;;;;10.20;2.45;;;9.20;97.60;;;;;;5033019;28;20025;-64
2021/12/19 07:19:52;;;;;;;4.47;2.03;;;9.20;97.50;;;;;;5032983;28;20021;-64
2021/12/19 07:22:19;;;;;;;4.65;1.60;;;9.20;97.50;;;;;;5031648;28;20067;-64
2021/12/19 07:24:45;;;;;;;5.88;2.47;;;9.20;97.40;;;;;;5032778;28;20025;-64
2021/12/19 07:27:12;;;;;;;5.25;1.95;;;9.20;97.50;;;;;;5033750;28;20068;-64
2021/12/19 07:29:37;;;;;;;3.53;1.88;;;9.20;97.50;;;;;;5033301;28;20434;-64
2021/12/19 07:32:03;;;;;;;5.63;2.85;;;9.20;97.70;;;;;;5030237;28;20108;-64
2021/12/19 07:34:32;;;;;;;5.63;2.10;;;9.20;97.50;;;;;;5015717;28;20460;-64
2021/12/19 07:36:58;;;;;;;4.60;2.05;;;9.20;97.60;;;;;;5029026;28;20038;-64
2021/12/19 07:42:00;;;;;;;5.47;2.20;;;9.20;97.70;;;;;;5018763;28;20535;-63
2021/12/19 07:44:25;;;;;;;4.57;2.15;;;9.30;97.80;;;;;;5017599;28;20025;-63
2021/12/19 07:46:51;;;;;;;5.47;2.17;;;9.30;97.90;;;;;;5017621;28;20033;-63
2021/12/19 07:49:16;;;;;;;4.82;2.15;;;9.30;97.90;;;;;;5017777;28;20032;-64
2021/12/19 07:51:42;;;;;;;4.63;1.90;;;9.30;98.00;;;;;;5012897;28;20120;-64
2021/12/19 07:54:08;;;;;;;3.33;1.55;;;9.30;98.00;;;;;;5019023;28;20074;-63
2021/12/19 07:56:34;;;;;;;3.58;1.63;;;9.30;98.10;;;;;;5013486;28;20496;-64
2021/12/19 07:59:00;;;;;;;2.70;1.67;;;9.30;98.10;;;;;;5015033;28;20479;-63
2021/12/19 08:01:25;;;;;;;4.20;1.33;;;9.30;98.30;;;;;;5016020;28;20128;-64
2021/12/19 08:03:51;;;;;;;3.90;1.52;;;9.20;98.30;;;;;;5015119;28;20021;-64
2021/12/19 08:06:16;;;;;;;5.13;1.75;;;9.20;98.40;;;;;;5016681;28;20037;-64
2021/12/19 08:08:47;;;;;;;1.90;1.20;;;9.20;98.40;;;;;;5013995;28;20029;-62
2021/12/19 08:13:58;;;;;;;3.08;1.00;;;9.20;98.70;;;;;;5016343;28;20473;-62
2021/12/19 08:16:23;;;;;;;3.97;1.33;;;9.20;98.50;;;;;;5015177;28;20063;-62
2021/12/19 08:18:51;;;;;;;3.50;1.20;;;9.20;98.50;;;;;;5015253;28;21919;-63
2021/12/19 08:21:17;;;;;;;1.30;1.10;;;9.20;98.60;;;;;;5017029;28;20400;-63
2021/12/19 08:23:42;;;;;;;3.55;1.50;;;9.30;98.60;;;;;;5015543;28;20064;-63
2021/12/19 08:26:08;;;;;;;2.88;1.30;;;9.20;98.70;;;;;;5014830;28;20034;-62
2021/12/19 08:28:33;;;;;;;1.95;1.20;;;9.30;98.70;;;;;;5017031;28;20018;-62
2021/12/19 08:30:59;;;;;;;3.45;1.52;;;9.20;98.70;;;;;;5022115;28;20037;-63
2021/12/19 08:33:24;;;;;;;5.88;1.20;;;9.20;98.70;;;;;;5015747;28;20388;-63
2021/12/19 08:35:50;;;;;;;3.63;1.45;;;9.20;98.80;;;;;;5015147;28;20120;-64
2021/12/19 08:38:15;;;;;;;2.05;1.30;;;9.30;98.80;;;;;;5014465;28;20660;-63
2021/12/19 08:40:41;;;;;;;2.83;1.60;;;9.30;98.80;;;;;;5016551;28;20040;-63
2021/12/19 08:43:07;;;;;;;4.38;1.30;;;9.20;99.00;;;;;;5013304;28;20033;-63
2021/12/19 08:45:33;;;;;;;3.72;1.33;;;9.20;99.10;;;;;;5016573;28;20427;-63
2021/12/19 08:47:58;;;;;;;2.60;1.38;;;9.20;99.10;;;;;;5014363;28;20559;-64
2021/12/19 08:50:24;;;;;;;3.45;1.48;;;9.30;99.20;;;;;;5016216;28;20025;-63
2021/12/19 08:52:52;;;;;;;4.40;1.48;;;9.30;99.20;;;;;;5014005;28;20036;-64
2021/12/19 08:55:19;;;;;;;5.30;2.08;;;9.30;99.10;;;;;;5014589;28;20056;-64
2021/12/19 08:57:44;;;;;;;2.22;1.38;;;9.30;99.20;;;;;;5013262;28;20480;-64
2021/12/19 09:00:11;;;;;;;3.22;1.48;;;9.30;99.40;;;;;;5016825;28;20025;-63
2021/12/19 09:02:44;;;;;;;2.67;1.30;;;9.30;99.50;;;;;;5014086;28;20072;-63
2021/12/19 09:05:10;;;;;;;4.13;1.58;;;9.30;99.40;;;;;;5016510;28;20132;-62
2021/12/19 09:07:36;;;;;;;1.73;1.00;;;9.40;99.50;;;;;;5014677;28;20188;-63
2021/12/19 09:10:04;;;;;;;1.83;0.95;;;9.30;99.50;;;;;;5014071;28;20017;-63
2021/12/19 09:12:29;;;;;;;4.47;1.48;;;9.30;99.50;;;;;;5012694;28;20061;-63
2021/12/19 09:14:56;;;;;;;1.92;1.20;;;9.20;99.60;;;;;;5012664;28;20462;-63
2021/12/19 09:17:22;;;;;;;4.78;1.40;;;9.30;99.60;;;;;;5012506;28;20032;-64
2021/12/19 09:19:47;;;;;;;4.20;1.48;;;9.30;99.70;;;;;;5014937;28;20480;-65
2021/12/19 09:22:13;;;;;;;1.50;1.05;;;9.30;99.70;;;;;;5015295;28;20394;-64
2021/12/19 09:24:38;;;;;;;1.98;1.33;;;9.40;99.60;;;;;;5014759;28;20048;-64
2021/12/19 09:27:05;;;;;;;2.28;1.27;;;9.40;99.60;;;;;;5016879;28;20091;-64
2021/12/19 09:29:30;;;;;;;2.92;1.25;;;9.30;99.50;;;;;;5020035;28;20107;-63
2021/12/19 09:31:57;;;;;;;3.10;1.40;;;9.30;99.60;;;;;;5023900;28;20449;-64
2021/12/19 09:34:23;;;;;;;3.85;1.25;;;9.30;99.60;;;;;;5017336;28;20025;-64
2021/12/19 09:36:49;;;;;;;4.25;1.48;;;9.30;99.60;;;;;;5012913;28;20041;-64
2021/12/19 09:39:14;;;;;;;2.75;1.77;;;9.20;99.70;;;;;;5011850;28;20026;-64
2021/12/19 09:41:44;;;;;;;2.97;1.60;;;9.20;99.60;;;;;;5012821;28;20638;-65
2021/12/19 09:44:11;;;;;;;3.15;1.55;;;9.20;99.70;;;;;;5014676;28;20025;-64
2021/12/19 09:46:39;;;;;;;4.15;1.95;;;9.20;99.80;;;;;;5014204;28;20048;-65
2021/12/19 09:49:07;;;;;;;3.13;1.83;;;9.20;99.80;;;;;;5013701;28;20171;-64
2021/12/19 09:51:33;;;;;;;5.38;1.75;;;9.20;99.90;;;;;;5014181;28;20117;-64
2021/12/19 09:53:59;;;;;;;2.50;1.35;;;9.20;99.90;;;;;;5012762;28;20040;-64
2021/12/19 09:56:24;;;;;;;3.85;1.88;;;9.20;99.90;;;;;;5014414;28;20041;-63
2021/12/19 09:58:50;;;;;;;3.08;1.58;;;9.10;99.90;;;;;;5012327;28;20180;-63
2021/12/19 10:01:16;;;;;;;3.05;1.98;;;9.10;99.90;;;;;;5012465;28;20048;-63
2021/12/19 10:03:42;;;;;;;6.65;1.50;;;9.10;99.90;;;;;;5013013;28;20029;-64
2021/12/19 10:06:24;;;;;;;3.90;1.58;;;9.20;99.90;;;;;;5012432;28;20025;-64
2021/12/19 10:09:08;;;;;;;5.63;1.33;;;9.20;99.90;;;;;;5025956;28;20075;-64
2021/12/19 10:14:31;;;;;;;2.22;1.30;;;9.20;99.90;;;;;;5029321;28;20562;-64
2021/12/19 10:16:59;;;;;;;2.92;1.58;;;9.10;99.90;;;;;;5023485;28;20045;-63
2021/12/19 10:19:49;;;;;;;5.20;1.50;;;9.10;99.90;;;;;;5029238;28;20029;-63
2021/12/19 10:22:30;;;;;;;4.20;1.77;;;9.10;99.90;;;;;;5026543;28;20046;-64
2021/12/19 10:25:18;;;;;;;2.47;1.35;;;9.20;99.90;;;;;;5014313;28;20033;-64
2021/12/19 10:27:52;;;;;;;7.13;1.75;;;9.20;99.90;;;;;;5012119;28;20059;-64
2021/12/19 10:30:23;;;;;;;4.82;1.80;;;9.10;99.90;;;;;;5014964;28;20116;-64
2021/12/19 10:32:58;;;;;;;3.40;1.40;;;9.10;99.90;;;;;;5012131;28;20037;-64
2021/12/19 10:35:33;;;;;;;3.15;1.52;;;9.10;99.90;;;;;;5014733;28;20041;-64
2021/12/19 10:38:01;;;;;;;3.63;1.40;;;9.10;99.90;;;;;;5021659;28;20037;-62
2021/12/19 10:40:28;;;;;;;3.20;1.65;;;9.20;99.90;;;;;;4997208;28;20067;-64
2021/12/19 10:42:59;;;;;;;4.85;1.60;;;9.20;99.90;;;;;;5012862;28;20037;-64
2021/12/19 10:45:29;;;;;;;3.95;1.60;;;9.20;99.90;;;;;;5010605;28;20513;-64
2021/12/19 10:48:32;;;;;;;4.22;1.80;;;9.20;99.90;;;;;;5012123;28;20048;-64
2021/12/19 10:51:06;;;;;;;4.25;1.88;;;9.20;99.90;;;;;;5014147;28;20148;-63
2021/12/19 10:53:41;;;;;;;4.25;2.05;;;9.30;99.90;;;;;;5012300;28;20041;-63
2021/12/19 10:56:15;;;;;;;3.58;1.73;;;9.20;99.90;;;;;;5014530;28;21910;-63
2021/12/19 10:58:43;;;;;;;4.75;2.08;;;9.20;99.90;;;;;;5004734;28;20099;-63
2021/12/19 11:01:17;;;;;;;4.90;1.80;;;9.10;99.90;;;;;;5012863;28;20504;-64
2021/12/19 11:03:49;;;;;;;5.57;2.17;;;9.10;99.90;;;;;;5011511;28;20043;-65
2021/12/19 11:06:22;;;;;;;4.22;1.60;;;9.10;99.90;;;;;;5011970;28;20036;-66
2021/12/19 11:08:49;;;;;;;3.33;1.90;;;9.10;99.90;;;;;;5012679;28;20029;-66
2021/12/19 11:11:39;;;;;;;7.65;2.05;;;9.10;99.90;;;;;;5012226;28;20534;-66
2021/12/19 11:14:06;;;;;;;4.57;2.00;;;9.10;99.90;;;;;;5013501;28;20121;-66
2021/12/19 11:16:32;;;;;;;4.35;1.88;;;9.20;99.90;;;;;;5013254;28;20560;-66
2021/12/19 11:18:58;;;;;;;4.68;1.67;;;9.20;99.90;;;;;;5014577;28;20397;-66
2021/12/19 11:21:23;;;;;;;3.38;1.70;;;9.20;99.90;;;;;;5012140;28;20500;-66
2021/12/19 11:23:49;;;;;;;2.95;1.45;;;9.20;99.90;;;;;;5012592;28;20033;-66
2021/12/19 11:26:18;;;;;;;4.50;1.63;;;9.20;99.90;;;;;;5014748;28;20029;-64
2021/12/19 11:28:43;;;;;;;5.25;1.58;;;9.30;99.90;;;;;;5016039;28;20029;-66
2021/12/19 11:31:11;;;;;;;3.35;1.45;;;9.30;99.90;;;;;;5000777;28;20388;-66
2021/12/19 11:34:01;;;;;;;3.45;1.48;;;9.30;99.90;;;;;;5023412;28;20036;-65
2021/12/19 11:36:32;;;;;;;4.15;1.85;;;9.30;99.90;;;;;;5016714;28;20128;-65
2021/12/19 11:39:02;;;;;;;4.50;1.60;;;9.30;99.90;;;;;;5015887;28;20076;-66
2021/12/19 11:41:27;;;;;;;4.75;2.28;;;9.30;99.90;;;;;;5017058;28;20076;-66
2021/12/19 11:43:56;;;;;;;4.70;3.05;;;9.40;99.90;;;;;;5016147;28;20109;-66
2021/12/19 11:46:41;;;;;;;6.15;1.80;;;9.40;99.90;;;;;;5017212;28;20059;-66
2021/12/19 11:49:20;;;;;;;5.05;1.60;;;9.40;99.90;;;;;;5015475;28;20034;-66
2021/12/19 11:51:46;;;;;;;4.32;1.90;;;9.40;99.90;;;;;;5016610;28;20708;-66
2021/12/19 11:54:16;;;;;;;5.93;1.50;;;9.40;99.90;;;;;;5016526;28;20036;-66
2021/12/19 11:57:08;;;;;;;5.00;2.10;;;9.40;99.90;;;;;;5015734;28;20034;-66
2021/12/19 11:59:35;;;;;;;5.80;2.85;;;9.50;99.90;;;;;;5017964;28;20041;-66
2021/12/19 12:02:23;;;;;;;4.50;2.20;;;9.50;99.90;;;;;;5016048;28;20041;-65
2021/12/19 12:05:13;;;;;;;5.85;2.35;;;9.50;99.90;;;;;;5017407;28;20056;-66
2021/12/19 12:08:04;;;;;;;4.60;1.85;;;9.50;99.90;;;;;;5015580;28;20104;-65
2021/12/19 12:10:53;;;;;;;3.58;1.60;;;9.50;99.90;;;;;;5016415;28;20025;-65
2021/12/19 12:13:30;;;;;;;4.60;2.00;;;9.50;99.90;;;;;;5013975;28;20034;-65
2021/12/19 12:16:35;;;;;;;7.03;1.55;;;9.50;99.90;;;;;;5017950;28;20037;-64
2021/12/19 12:19:04;;;;;;;4.28;1.98;;;9.50;99.90;;;;;;5019635;28;20032;-66
2021/12/19 12:21:39;;;;;;;5.38;3.03;;;9.50;99.90;;;;;;5016222;28;20033;-64
2021/12/19 12:24:13;;;;;;;4.22;1.75;;;9.50;99.90;;;;;;5015368;28;20484;-65
2021/12/19 12:26:57;;;;;;;4.78;1.98;;;9.40;99.90;;;;;;5014937;28;20037;-65
2021/12/19 12:29:23;;;;;;;3.83;1.90;;;9.50;99.90;;;;;;5015358;28;20044;-65
2021/12/19 12:31:49;;;;;;;5.85;2.00;;;9.50;99.90;;;;;;5022692;28;20041;-63
2021/12/19 12:34:17;;;;;;;6.65;1.80;;;9.50;99.90;;;;;;5016150;28;20563;-64
2021/12/19 12:36:43;;;;;;;6.03;1.73;;;9.50;99.90;;;;;;5023282;28;20033;-65
2021/12/19 12:39:19;;;;;;;6.05;1.65;;;9.50;99.90;;;;;;5030683;28;20068;-66
2021/12/19 12:44:24;;;;;;;4.72;1.80;;;9.50;99.90;;;;;;5032090;28;20079;-65
2021/12/19 12:46:50;;;;;;;3.47;1.52;;;9.40;99.90;;;;;;5020899;28;20452;-65
2021/12/19 12:49:19;;;;;;;5.90;1.85;;;9.40;99.90;;;;;;5030485;28;20033;-65
2021/12/19 12:51:58;;;;;;;4.80;1.80;;;9.50;99.90;;;;;;5026946;28;20036;-65
2021/12/19 12:54:35;;;;;;;7.97;2.00;;;9.50;99.90;;;;;;5013495;28;20071;-65
2021/12/19 12:57:04;;;;;;;4.22;1.60;;;9.40;99.90;;;;;;5020790;28;20458;-65
2021/12/19 12:59:33;;;;;;;4.70;1.48;;;9.40;99.90;;;;;;5031721;28;20041;-65
2021/12/19 13:02:18;;;;;;;3.67;1.70;;;9.40;99.90;;;;;;5022810;28;20041;-65
2021/12/19 13:04:48;;;;;;;5.90;2.28;;;9.40;99.90;;;;;;5026894;28;20022;-65
2021/12/19 13:07:16;;;;;;;3.65;2.20;;;9.40;99.90;;;;;;5009293;28;20408;-66
2021/12/19 13:09:48;;;;;;;4.20;1.77;;;9.40;99.90;;;;;;5009512;28;20065;-65
2021/12/19 13:12:18;;;;;;;4.80;1.70;;;9.40;99.90;;;;;;5015125;28;20033;-65
2021/12/19 13:14:43;;;;;;;4.43;1.60;;;9.40;99.90;;;;;;5010281;28;20116;-65
2021/12/19 13:17:11;;;;;;;6.18;1.77;;;9.30;99.90;;;;;;5011341;28;20100;-65
2021/12/19 13:19:44;;;;;;;3.58;1.30;;;9.30;99.90;;;;;;5013678;28;20432;-65
2021/12/19 13:22:23;;;;;;;4.93;1.80;;;9.30;99.90;;;;;;5010087;28;20480;-65
2021/12/19 13:24:51;;;;;;;5.45;1.60;;;9.30;99.90;;;;;;5012349;28;20029;-65
2021/12/19 13:27:29;;;;;;;7.88;1.90;;;9.30;99.90;;;;;;5012425;28;20472;-65
2021/12/19 13:30:13;;;;;;;4.22;2.20;;;9.40;99.90;;;;;;5018225;28;20029;-65
2021/12/19 13:32:45;;;;;;;7.22;2.00;;;9.30;99.90;;;;;;5014495;28;20635;-66
2021/12/19 13:35:47;;;;;;;6.00;1.77;;;9.30;99.90;;;;;;5013994;28;20037;-65
2021/12/19 13:38:21;;;;;;;4.80;1.73;;;9.30;99.90;;;;;;4990394;28;20492;-66
2021/12/19 13:41:03;;;;;;;7.75;1.83;;;9.30;99.90;;;;;;5012609;28;20037;-67
2021/12/19 13:43:32;;;;;;;3.85;1.30;;;9.30;99.90;;;;;;5010806;28;20047;-66
2021/12/19 13:46:06;;;;;;;5.78;1.40;;;9.40;99.90;;;;;;5010080;28;20511;-65
2021/12/19 13:48:35;;;;;;;4.38;1.65;;;9.40;99.90;;;;;;5010515;28;20656;-65
2021/12/19 13:51:12;;;;;;;3.10;1.63;;;9.40;99.90;;;;;;5013608;28;20508;-66
2021/12/19 13:53:50;;;;;;;5.90;2.05;;;9.40;99.90;;;;;;5011737;28;20773;-66
2021/12/19 13:56:18;;;;;;;4.65;1.35;;;9.40;99.90;;;;;;5009933;28;20033;-66
2021/12/19 13:58:48;;;;;;;3.20;1.55;;;9.30;99.90;;;;;;5011432;28;20048;-66
2021/12/19 14:01:16;;;;;;;2.60;1.60;;;9.40;99.90;;;;;;5013226;28;20124;-66
2021/12/19 14:03:53;;;;;;;5.10;1.77;;;9.30;99.90;;;;;;5011835;28;20029;-66
2021/12/19 14:06:31;;;;;;;5.70;2.05;;;9.40;99.90;;;;;;5014902;28;20476;-66
2021/12/19 14:09:06;;;;;;;4.32;1.88;;;9.30;99.90;;;;;;5013809;28;20107;-66
2021/12/19 14:11:34;;;;;;;5.90;2.67;;;9.30;99.90;;;;;;5011874;28;20155;-66
2021/12/19 14:14:11;;;;;;;4.22;2.08;;;9.30;99.90;;;;;;5012894;28;20408;-66